Terminal Aerodrome Forecast
Issued by NWS

Home | Current Version | Previous Version | Text Only | Print | Product List | Glossary On
Versions: 1 2 3 4 5 6 7 8 9 10 11 12 13 14 15 16 17 18 19 20 21 22 23 24 25 26 27 28 29 30 31 32
000
FTUS45 KPSR 012300
TAFIWA
TAF
KIWA 012321Z 0200/0224 20008KT P6SM SCT060 BKN080
     FM020600 13008KT P6SM VCSH SCT040 BKN060 OVC100
     FM021300 16014KT P6SM -RA FEW020 BKN040 OVC080
     FM021700 19014G22KT 5SM RA BR SCT008 BKN020 OVC040
     FM022200 18008KT P6SM VCSH SCT020 BKN040
      AMD LTD TO CLD VIS AND WIND 0203/0213=

USA.gov is the U.S. government's official web portal to all federal, state and local government web resources and services.